Christmas Island, Australian Islands

1:31 PM CXT on October 01, 2016 (GMT +0700)
Christmas Island | | Change Station

Elev 860 ft 10.45 °S, 105.69 °E | Updated 1 minute ago

Overcast
Overcast
79 °F
Feels Like 79 °F
N
7
Wind Variable Wind from SSE

Today
High -- | Low -- °F
--% Chance of Precip.
Yesterday
High -- | Low -- °F
Precip. -- in
Pressure 29.86 in
Visibility 6.2 miles
Clouds Mostly Cloudy 600 ft
Overcast 1600 ft
Dew Point 75 °F
Humidity 89%
Rainfall 0.00 in
Snow Depth Not available.
5:41 AM 5:52 PM
New Moon, 0% visible
SPECI YPXM 010630Z AUTO 16006KT 9999 // BKN006 OVC016 26/24 Q1011
Pressure 29.86 in
Visibility 6.2 miles
Clouds Mostly Cloudy 600 ft
Overcast 1600 ft
Dew Point 75 °F
Humidity 89%
Rainfall 0.00 in
Snow Depth Not available.
5:41 AM 5:52 PM
New Moon, 0% visible
SPECI YPXM 010630Z AUTO 16006KT 9999 // BKN006 OVC016 26/24 Q1011

10-Day Weather Forecast

No radar image for this location.
×

Almanac

Astronomy

Oct. 01, 2016 Rise Set
Actual Time
Civil Twilight
Nautical Twilight
Astronomical Twilight
Moon
Length of Visible Light
Length of Day
Tomorrow will be .
, % of the Moon is Illuminated

Today's Extremes

Country Highs Country Lows

Community

WunderPhotos

Upload Photos

1,942,898 photos uploaded!

WunderBlog® & News

Nearby

Air Quality

  Air Quality AQ Index Pollutant
Not available.

Snow Depth

Station Depth Elevation

Earthquake Activity

City Distance Mag. Time & Date
Minimum magnitude displayed is 2.5.

Coastal Water Temperatures

Place Temperature

Stations

Nearby Weather Stations

Station Location Temp. Windchill Dew Point Humidity Wind Precip. Elev Updated Type